Time;durP1;ratioP1;P1;durP2;ratioP2;P2;SDS_P1;SDS_P2;PMS_P1;PMS_P2;Temp;Humidity;BMP_temperature;BMP_pressure;BME280_temperature;BME280_humidity;BME280_pressure;Samples;Min_cycle;Max_cycle;Signal;HPM_P1;HPM_P2
2023/06/23 00:00:52;;;;;;;1.30;1.30;;;21.10;99.90;;;;;;5076775;28;20207;-61
2023/06/23 00:03:18;;;;;;;1.07;1.07;;;21.00;99.90;;;;;;5077830;28;20630;-61
2023/06/23 00:05:45;;;;;;;1.20;1.20;;;21.00;99.90;;;;;;5078114;28;20205;-62
2023/06/23 00:08:12;;;;;;;1.03;1.03;;;21.00;99.90;;;;;;5074750;28;20215;-65
2023/06/23 00:10:39;;;;;;;1.00;1.00;;;20.90;99.90;;;;;;5074148;28;20303;-61
2023/06/23 00:13:06;;;;;;;1.20;1.20;;;20.90;99.90;;;;;;5074214;28;20210;-61
2023/06/23 00:15:34;;;;;;;1.00;1.00;;;20.90;99.90;;;;;;5084909;28;20580;-62
2023/06/23 00:18:01;;;;;;;1.10;1.10;;;20.80;99.90;;;;;;5094714;28;20227;-61
2023/06/23 00:20:28;;;;;;;0.97;0.97;;;20.80;99.90;;;;;;5094391;28;20581;-62
2023/06/23 00:22:55;;;;;;;0.90;0.90;;;20.80;99.90;;;;;;5094694;28;20690;-61
2023/06/23 00:25:22;;;;;;;1.00;1.00;;;21.00;99.90;;;;;;5094635;28;20225;-60
2023/06/23 00:27:49;;;;;;;0.93;0.93;;;21.20;99.90;;;;;;5094261;28;20229;-61
2023/06/23 00:30:15;;;;;;;1.10;1.10;;;21.40;99.90;;;;;;5094229;28;20352;-62
2023/06/23 00:32:44;;;;;;;1.03;1.03;;;21.40;99.90;;;;;;5090376;28;20752;-62
2023/06/23 00:35:13;;;;;;;1.10;1.10;;;21.40;99.90;;;;;;5064758;28;20199;-61
2023/06/23 00:37:40;;;;;;;1.10;1.10;;;21.30;99.90;;;;;;5065454;28;20227;-61
2023/06/23 00:40:10;;;;;;;1.17;1.17;;;21.10;99.90;;;;;;5065551;28;20203;-61
2023/06/23 00:42:44;;;;;;;1.23;1.23;;;21.10;99.90;;;;;;5063872;28;20290;-61
2023/06/23 00:45:13;;;;;;;1.00;1.00;;;21.00;99.90;;;;;;5062962;28;20191;-61
2023/06/23 00:47:42;;;;;;;1.20;1.20;;;21.00;99.90;;;;;;5062186;28;20210;-60
2023/06/23 00:50:13;;;;;;;1.20;1.20;;;20.90;99.90;;;;;;5053166;28;20304;-61
2023/06/23 00:52:40;;;;;;;1.10;1.10;;;20.90;99.90;;;;;;5058795;28;20294;-61
2023/06/23 00:55:07;;;;;;;1.17;1.17;;;20.90;99.90;;;;;;5062148;28;20281;-61
2023/06/23 00:57:34;;;;;;;1.03;1.03;;;20.80;99.90;;;;;;5060403;28;20226;-61
2023/06/23 01:00:01;;;;;;;1.20;1.20;;;20.60;99.90;;;;;;5069444;28;21145;-61
2023/06/23 01:02:28;;;;;;;1.07;1.07;;;20.50;99.90;;;;;;5053133;28;20222;-61
2023/06/23 01:04:55;;;;;;;1.27;1.27;;;20.40;99.90;;;;;;5053107;28;20269;-62
2023/06/23 01:07:28;;;;;;;1.23;1.23;;;20.50;99.90;;;;;;5056491;28;20196;-62
2023/06/23 01:10:03;;;;;;;2.60;1.40;;;20.50;99.90;;;;;;5058873;28;20282;-61
2023/06/23 01:12:39;;;;;;;1.27;1.23;;;20.40;99.90;;;;;;5092207;28;20213;-61
2023/06/23 01:15:13;;;;;;;1.38;1.35;;;20.40;99.90;;;;;;5094694;28;20688;-59
2023/06/23 01:17:46;;;;;;;2.00;1.90;;;20.30;99.90;;;;;;5092886;28;20225;-61
2023/06/23 01:20:20;;;;;;;609.63;208.03;;;20.40;99.90;;;;;;5092563;28;20301;-62
2023/06/23 01:23:09;;;;;;;49.17;46.13;;;20.40;99.90;;;;;;5092874;28;20213;-62
2023/06/23 01:25:55;;;;;;;1.10;1.10;;;20.50;99.90;;;;;;5092819;28;20199;-61
2023/06/23 01:28:48;;;;;;;1.13;1.02;;;20.40;99.90;;;;;;5092684;28;20585;-62
2023/06/23 01:31:20;;;;;;;1.38;1.38;;;20.50;99.90;;;;;;5092526;28;20207;-60
2023/06/23 01:33:50;;;;;;;1.80;1.70;;;20.50;99.90;;;;;;5091172;28;20213;-62
2023/06/23 01:36:25;;;;;;;1.40;1.40;;;20.40;99.90;;;;;;5092795;28;20205;-62
2023/06/23 01:38:58;;;;;;;1.20;1.20;;;20.50;99.90;;;;;;5110528;22;20234;-65
2023/06/23 01:41:29;;;;;;;1.80;1.70;;;20.60;99.90;;;;;;5089673;28;20252;-66
2023/06/23 01:43:58;;;;;;;1.40;1.40;;;20.70;99.90;;;;;;5093550;28;20297;-65
2023/06/23 01:46:34;;;;;;;1.60;1.60;;;20.60;99.90;;;;;;5107340;28;20317;-65
2023/06/23 01:49:07;;;;;;;1.70;1.60;;;20.60;99.90;;;;;;5103772;28;20219;-66
2023/06/23 01:51:35;;;;;;;1.70;1.70;;;20.50;99.90;;;;;;5093625;28;20194;-65
2023/06/23 01:54:04;;;;;;;1.97;1.87;;;20.60;99.90;;;;;;5093109;28;20202;-66
2023/06/23 01:56:34;;;;;;;1.70;1.60;;;20.60;99.90;;;;;;5092988;28;20202;-66
2023/06/23 01:59:03;;;;;;;1.83;1.77;;;20.70;99.90;;;;;;5092499;28;20592;-66
2023/06/23 02:01:33;;;;;;;1.70;1.60;;;20.60;99.90;;;;;;5093087;28;20202;-66
2023/06/23 02:04:02;;;;;;;1.57;1.57;;;20.50;99.90;;;;;;5092930;28;20206;-65
2023/06/23 02:06:30;;;;;;;1.50;1.50;;;20.50;99.90;;;;;;5093143;28;20212;-64
2023/06/23 02:08:58;;;;;;;1.70;1.60;;;20.50;99.90;;;;;;5092884;28;20626;-66
2023/06/23 02:11:26;;;;;;;1.43;1.43;;;20.50;99.90;;;;;;5092603;28;20285;-64
2023/06/23 02:13:56;;;;;;;1.40;1.40;;;20.30;99.90;;;;;;5092904;28;20230;-66
2023/06/23 02:16:27;;;;;;;1.50;1.50;;;20.30;99.90;;;;;;5092795;28;20207;-64
2023/06/23 02:18:56;;;;;;;1.73;1.63;;;20.30;99.90;;;;;;5092479;28;20317;-65
2023/06/23 02:21:25;;;;;;;1.80;1.70;;;20.30;99.90;;;;;;5092412;28;20199;-66
2023/06/23 02:23:52;;;;;;;1.90;1.80;;;20.20;99.90;;;;;;5091943;28;20206;-66
2023/06/23 02:26:22;;;;;;;1.90;1.80;;;20.20;99.90;;;;;;5092787;28;20679;-64
2023/06/23 02:28:51;;;;;;;1.80;1.70;;;20.20;99.90;;;;;;5099073;28;20226;-64
2023/06/23 02:31:21;;;;;;;1.83;1.80;;;20.10;99.90;;;;;;5093686;28;20282;-65
2023/06/23 02:33:49;;;;;;;1.80;1.70;;;20.10;99.90;;;;;;5093359;28;20574;-65
2023/06/23 02:36:20;;;;;;;1.60;1.60;;;20.10;99.90;;;;;;5092687;28;20730;-66
2023/06/23 02:38:48;;;;;;;1.47;1.47;;;20.10;99.90;;;;;;5093074;28;20362;-64
2023/06/23 02:41:17;;;;;;;2.10;2.00;;;20.10;99.90;;;;;;5092792;28;20735;-66
2023/06/23 02:43:50;;;;;;;1.70;1.70;;;20.20;99.90;;;;;;5093491;28;20574;-65
2023/06/23 02:46:19;;;;;;;2.07;1.97;;;20.20;99.90;;;;;;5093144;28;20266;-65
2023/06/23 02:48:51;;;;;;;2.10;2.00;;;20.20;99.90;;;;;;5095444;28;20730;-65
2023/06/23 02:51:21;;;;;;;1.80;1.70;;;20.20;99.90;;;;;;5092556;28;20209;-64
2023/06/23 02:53:52;;;;;;;2.00;1.90;;;20.30;99.90;;;;;;5092917;28;20590;-64
2023/06/23 02:56:22;;;;;;;1.98;1.88;;;20.40;99.90;;;;;;5092815;28;20206;-66
2023/06/23 02:58:53;;;;;;;1.80;1.73;;;20.40;99.90;;;;;;5092478;28;20236;-66
2023/06/23 03:01:22;;;;;;;2.07;1.97;;;20.50;99.90;;;;;;5091872;28;20217;-66
2023/06/23 03:03:50;;;;;;;2.20;2.10;;;20.40;99.90;;;;;;5092595;28;20228;-64
2023/06/23 03:06:18;;;;;;;2.10;2.00;;;20.40;99.90;;;;;;5092299;28;20673;-66
2023/06/23 03:08:47;;;;;;;2.17;2.08;;;20.30;99.90;;;;;;5092663;28;20223;-65
2023/06/23 03:11:15;;;;;;;2.07;1.97;;;20.30;99.90;;;;;;5092070;28;20292;-65
2023/06/23 03:13:43;;;;;;;2.40;2.30;;;20.40;99.90;;;;;;5092184;28;20213;-65
2023/06/23 03:16:13;;;;;;;2.00;1.90;;;20.30;99.90;;;;;;5092019;28;20665;-65
2023/06/23 03:18:46;;;;;;;2.20;2.10;;;20.20;99.90;;;;;;5092085;28;20257;-65
2023/06/23 03:21:16;;;;;;;2.60;2.50;;;20.20;99.90;;;;;;5091927;28;20236;-64
2023/06/23 03:23:49;;;;;;;2.20;2.10;;;20.20;99.90;;;;;;5092124;28;20211;-66
2023/06/23 03:26:18;;;;;;;2.73;2.63;;;20.20;99.90;;;;;;5092036;28;20202;-66
2023/06/23 03:28:48;;;;;;;2.70;2.60;;;20.20;99.90;;;;;;5093589;28;20726;-65
2023/06/23 03:31:16;;;;;;;2.70;2.60;;;20.10;99.90;;;;;;5092173;28;20736;-66
2023/06/23 03:33:45;;;;;;;2.70;2.60;;;20.20;99.90;;;;;;5091991;28;20213;-65
2023/06/23 03:36:17;;;;;;;2.83;2.73;;;20.20;99.90;;;;;;5095534;28;20199;-65
2023/06/23 03:38:47;;;;;;;2.83;2.73;;;20.10;99.90;;;;;;5095538;28;20241;-66
2023/06/23 03:41:15;;;;;;;2.80;2.70;;;20.10;99.90;;;;;;5096112;28;20202;-65
2023/06/23 03:43:49;;;;;;;2.47;2.37;;;20.10;99.90;;;;;;5095726;28;20293;-65
2023/06/23 03:46:21;;;;;;;2.50;2.40;;;20.00;99.90;;;;;;5096546;28;20198;-65
2023/06/23 03:48:52;;;;;;;2.73;2.63;;;20.00;99.90;;;;;;5101386;28;20232;-66
2023/06/23 03:51:22;;;;;;;2.93;2.83;;;20.10;99.90;;;;;;5099769;28;20286;-64
2023/06/23 03:53:52;;;;;;;2.90;2.80;;;20.10;99.90;;;;;;5100282;28;20211;-65
2023/06/23 03:56:20;;;;;;;3.20;3.10;;;20.00;99.90;;;;;;5102564;28;20251;-66
2023/06/23 03:58:49;;;;;;;3.10;3.00;;;20.00;99.90;;;;;;5104270;28;20230;-65
2023/06/23 04:01:17;;;;;;;3.13;3.03;;;20.00;99.90;;;;;;5107810;28;20574;-64
2023/06/23 04:03:45;;;;;;;2.58;2.47;;;20.00;99.90;;;;;;5097850;28;20225;-65
2023/06/23 04:06:14;;;;;;;2.60;2.50;;;20.00;99.90;;;;;;5101005;28;20202;-60
2023/06/23 04:08:43;;;;;;;2.40;2.30;;;20.10;99.90;;;;;;5101579;28;20305;-62
2023/06/23 04:11:11;;;;;;;2.70;2.50;;;20.40;99.90;;;;;;5102138;28;20235;-63
2023/06/23 04:13:40;;;;;;;2.33;2.22;;;20.70;99.90;;;;;;5098126;28;20327;-62
2023/06/23 04:16:08;;;;;;;2.42;2.33;;;20.80;99.90;;;;;;5096192;28;20202;-62
2023/06/23 04:18:38;;;;;;;2.30;2.20;;;21.10;99.90;;;;;;5095441;28;20257;-62
2023/06/23 04:21:07;;;;;;;3.33;3.23;;;21.30;99.90;;;;;;5095219;28;20206;-61
2023/06/23 04:23:36;;;;;;;2.70;2.60;;;21.40;99.90;;;;;;5095410;28;20203;-63
2023/06/23 04:26:07;;;;;;;2.60;2.50;;;21.40;99.90;;;;;;5095630;28;20682;-62
2023/06/23 04:28:36;;;;;;;2.67;2.57;;;21.40;99.90;;;;;;5095303;28;20218;-62
2023/06/23 04:31:07;;;;;;;2.60;2.50;;;21.50;99.90;;;;;;5095167;28;20301;-62
2023/06/23 04:33:34;;;;;;;2.53;2.33;;;21.60;99.90;;;;;;5095477;28;20583;-63
2023/06/23 04:36:06;;;;;;;2.50;2.40;;;21.70;99.90;;;;;;5095028;28;20210;-63
2023/06/23 04:38:38;;;;;;;2.40;2.30;;;21.70;99.90;;;;;;5094790;28;20572;-62
2023/06/23 04:41:12;;;;;;;2.80;2.70;;;21.80;99.90;;;;;;5094979;28;20207;-61
2023/06/23 04:43:42;;;;;;;2.60;2.50;;;21.70;99.90;;;;;;5095127;28;20206;-62
2023/06/23 04:46:15;;;;;;;2.40;2.30;;;21.60;99.90;;;;;;5094319;28;20198;-62
2023/06/23 04:48:47;;;;;;;2.60;2.50;;;21.70;99.90;;;;;;5094693;28;20214;-61
2023/06/23 04:51:16;;;;;;;2.88;2.67;;;21.80;99.90;;;;;;5095112;28;20232;-62
2023/06/23 04:53:48;;;;;;;2.67;2.57;;;21.80;99.90;;;;;;5095988;28;20735;-63
2023/06/23 04:56:21;;;;;;;2.60;2.50;;;22.10;99.90;;;;;;5095359;28;20207;-62
2023/06/23 04:58:53;;;;;;;2.90;2.80;;;21.90;99.90;;;;;;5094440;28;20597;-62
2023/06/23 05:01:21;;;;;;;3.07;2.87;;;21.80;99.90;;;;;;5094453;28;20203;-62
2023/06/23 05:03:49;;;;;;;2.90;2.80;;;21.80;99.90;;;;;;5094377;28;20213;-61
2023/06/23 05:06:18;;;;;;;3.10;3.00;;;21.80;99.90;;;;;;5094733;28;20669;-60
2023/06/23 05:08:48;;;;;;;3.20;3.07;;;21.90;99.90;;;;;;5093850;28;20226;-61
2023/06/23 05:11:19;;;;;;;2.80;2.70;;;21.80;99.90;;;;;;5093796;28;20203;-62
2023/06/23 05:13:47;;;;;;;3.20;3.00;;;21.90;99.90;;;;;;5094577;28;20206;-60
2023/06/23 05:16:15;;;;;;;2.70;2.60;;;21.90;99.90;;;;;;5094121;28;20209;-62
2023/06/23 05:18:44;;;;;;;2.80;2.70;;;21.90;99.90;;;;;;5094075;28;20275;-61
2023/06/23 05:21:14;;;;;;;4.00;3.80;;;21.80;99.90;;;;;;5094436;28;20257;-61
2023/06/23 05:23:42;;;;;;;2.70;2.60;;;21.70;99.90;;;;;;5098356;28;20206;-60
2023/06/23 05:26:11;;;;;;;2.63;2.53;;;21.50;99.90;;;;;;5096989;28;20206;-62
2023/06/23 05:28:41;;;;;;;2.83;2.72;;;21.60;99.90;;;;;;5094180;28;20268;-61
2023/06/23 05:31:09;;;;;;;3.07;2.87;;;21.60;99.90;;;;;;5100433;28;20214;-61
2023/06/23 05:33:38;;;;;;;3.30;3.20;;;21.70;99.90;;;;;;5102301;28;20289;-61
2023/06/23 05:36:08;;;;;;;4.13;3.93;;;21.70;99.90;;;;;;5095976;28;20583;-60
2023/06/23 05:38:37;;;;;;;3.13;2.93;;;21.70;99.90;;;;;;5093922;28;20747;-61
2023/06/23 05:41:04;;;;;;;3.23;3.10;;;21.70;99.90;;;;;;5094925;28;20217;-64
2023/06/23 05:43:31;;;;;;;3.07;2.87;;;21.70;99.90;;;;;;5095472;28;20202;-64
2023/06/23 05:46:03;;;;;;;3.20;3.00;;;21.50;99.90;;;;;;5095338;28;20229;-67
2023/06/23 05:48:38;;;;;;;3.30;3.13;;;21.20;99.90;;;;;;5094354;28;20217;-64
2023/06/23 05:51:08;;;;;;;3.80;3.60;;;21.00;99.90;;;;;;5092331;28;20202;-64
2023/06/23 05:53:38;;;;;;;3.53;3.33;;;20.80;99.90;;;;;;5092858;28;20205;-64
2023/06/23 05:56:13;;;;;;;3.60;3.40;;;20.60;99.90;;;;;;5092070;28;20202;-64
2023/06/23 05:58:45;;;;;;;4.00;3.80;;;20.50;99.90;;;;;;5088411;28;20222;-64
2023/06/23 06:01:16;;;;;;;3.50;3.30;;;20.50;99.90;;;;;;5091989;28;20293;-62
2023/06/23 06:03:47;;;;;;;3.73;3.53;;;20.40;99.90;;;;;;5091949;28;20210;-65
2023/06/23 06:06:15;;;;;;;3.50;3.30;;;20.40;99.90;;;;;;5093525;28;20207;-67
2023/06/23 06:08:45;;;;;;;3.70;3.50;;;20.40;99.90;;;;;;5101728;28;20233;-64
2023/06/23 06:11:16;;;;;;;2.90;2.80;;;20.40;99.90;;;;;;5096805;28;20209;-62
2023/06/23 06:13:46;;;;;;;3.40;3.20;;;20.40;99.90;;;;;;5100015;28;20207;-65
2023/06/23 06:16:15;;;;;;;4.00;3.80;;;20.40;99.90;;;;;;5094697;28;20682;-64
2023/06/23 06:18:44;;;;;;;3.23;3.13;;;20.40;99.90;;;;;;5093537;28;20219;-66
2023/06/23 06:21:12;;;;;;;3.70;3.50;;;20.30;99.90;;;;;;5092441;28;20202;-63
2023/06/23 06:23:42;;;;;;;3.10;3.00;;;20.40;99.90;;;;;;5092945;28;20203;-65
2023/06/23 06:26:10;;;;;;;3.87;3.57;;;20.40;99.90;;;;;;5092748;28;20301;-63
2023/06/23 06:28:39;;;;;;;4.37;4.07;;;20.40;99.90;;;;;;5093040;28;20222;-63
2023/06/23 06:31:08;;;;;;;4.57;4.27;;;20.40;99.90;;;;;;5092949;28;20297;-65
2023/06/23 06:33:38;;;;;;;3.67;3.47;;;20.40;99.90;;;;;;5093442;28;20216;-63
2023/06/23 06:36:08;;;;;;;4.37;4.17;;;20.50;99.90;;;;;;5093026;28;20241;-64
2023/06/23 06:38:38;;;;;;;3.83;3.63;;;20.40;99.90;;;;;;5092940;28;20305;-64
2023/06/23 06:41:06;;;;;;;3.70;3.50;;;20.50;99.90;;;;;;5092647;28;20199;-64
2023/06/23 06:43:33;;;;;;;3.67;3.47;;;20.50;99.90;;;;;;5094556;28;20289;-64
2023/06/23 06:46:01;;;;;;;3.37;3.17;;;20.60;99.90;;;;;;5095666;28;20552;-65
2023/06/23 06:48:29;;;;;;;3.90;3.70;;;20.70;99.90;;;;;;5094941;28;20203;-63
2023/06/23 06:50:58;;;;;;;3.63;3.43;;;20.70;99.90;;;;;;5098813;28;20194;-64
2023/06/23 06:53:25;;;;;;;3.70;3.50;;;20.60;99.90;;;;;;5093048;28;20681;-64
2023/06/23 06:55:53;;;;;;;4.20;4.00;;;20.60;99.90;;;;;;5094662;28;20207;-64
2023/06/23 06:58:20;;;;;;;3.50;3.30;;;20.50;99.90;;;;;;5094948;28;20207;-63
2023/06/23 07:00:47;;;;;;;3.80;3.60;;;20.50;99.90;;;;;;5094421;28;20722;-65
2023/06/23 07:03:16;;;;;;;4.32;4.07;;;20.50;99.90;;;;;;5092496;28;20208;-64
2023/06/23 07:05:43;;;;;;;3.60;3.40;;;20.50;99.90;;;;;;5094388;28;20530;-65
2023/06/23 07:08:11;;;;;;;4.10;3.90;;;20.50;99.90;;;;;;5096309;28;20203;-65
2023/06/23 07:10:38;;;;;;;3.60;3.40;;;20.60;99.90;;;;;;5092158;28;20222;-65
2023/06/23 07:13:05;;;;;;;3.30;3.10;;;20.50;99.90;;;;;;5092776;28;20215;-65
2023/06/23 07:15:32;;;;;;;3.83;3.63;;;20.50;99.90;;;;;;5092548;28;20202;-64
2023/06/23 07:17:59;;;;;;;3.90;3.70;;;20.60;99.90;;;;;;5093034;28;20198;-64
2023/06/23 07:20:26;;;;;;;3.87;3.67;;;20.60;99.90;;;;;;5092985;28;20316;-64
2023/06/23 07:22:52;;;;;;;3.67;3.53;;;20.60;99.90;;;;;;5092235;28;20570;-65
2023/06/23 07:25:20;;;;;;;3.93;3.73;;;20.60;99.90;;;;;;5090746;28;20194;-64
2023/06/23 07:27:48;;;;;;;4.13;3.93;;;20.70;99.90;;;;;;5090050;28;20293;-64
2023/06/23 07:30:16;;;;;;;3.40;3.20;;;20.70;99.90;;;;;;5092723;28;20227;-65
2023/06/23 07:32:45;;;;;;;4.80;4.50;;;20.70;99.90;;;;;;5090203;28;20203;-65
2023/06/23 07:35:14;;;;;;;4.77;4.47;;;20.80;99.90;;;;;;5097925;28;20296;-63
2023/06/23 07:37:41;;;;;;;3.77;3.57;;;20.90;99.90;;;;;;5099053;28;20290;-66
2023/06/23 07:40:09;;;;;;;4.03;3.83;;;21.10;99.90;;;;;;5091013;22;20219;-62
2023/06/23 07:42:37;;;;;;;3.87;3.67;;;21.10;99.90;;;;;;5068167;28;20735;-63
2023/06/23 07:45:05;;;;;;;4.03;3.83;;;21.10;99.90;;;;;;5058288;28;20669;-61
2023/06/23 07:47:32;;;;;;;4.63;4.33;;;21.10;99.90;;;;;;5066478;28;20207;-62
2023/06/23 07:49:59;;;;;;;3.87;3.67;;;21.00;99.90;;;;;;5068943;28;20246;-61
2023/06/23 07:52:25;;;;;;;4.77;4.47;;;20.90;99.90;;;;;;5071222;28;20289;-64
2023/06/23 07:54:52;;;;;;;3.80;3.60;;;20.90;99.90;;;;;;5054742;28;20620;-63
2023/06/23 07:57:21;;;;;;;3.07;2.97;;;20.80;99.90;;;;;;5070659;28;20236;-63
2023/06/23 07:59:49;;;;;;;3.60;3.40;;;20.90;99.90;;;;;;5068769;28;20296;-62
2023/06/23 08:02:16;;;;;;;3.47;3.27;;;21.00;99.90;;;;;;5060789;28;20202;-62
2023/06/23 08:04:43;;;;;;;3.33;3.17;;;21.00;99.90;;;;;;5062112;28;20199;-63
2023/06/23 08:07:10;;;;;;;3.78;3.58;;;21.10;99.90;;;;;;5059888;28;20522;-62
2023/06/23 08:09:37;;;;;;;2.60;2.50;;;21.30;99.90;;;;;;5062208;28;20230;-63
2023/06/23 08:12:05;;;;;;;2.95;2.85;;;21.30;99.90;;;;;;5068898;28;20245;-62
2023/06/23 08:14:32;;;;;;;2.85;2.75;;;21.30;99.90;;;;;;5070001;28;20231;-62
2023/06/23 08:17:01;;;;;;;2.77;2.67;;;21.30;99.90;;;;;;5067576;28;20669;-62
2023/06/23 08:19:30;;;;;;;3.80;3.60;;;21.50;99.90;;;;;;5066567;28;20226;-62
2023/06/23 08:21:56;;;;;;;3.00;2.80;;;21.70;99.90;;;;;;5063629;28;20202;-62
2023/06/23 08:24:23;;;;;;;3.35;3.17;;;21.70;99.90;;;;;;5068129;28;20286;-62
2023/06/23 08:26:50;;;;;;;3.28;3.08;;;21.80;99.90;;;;;;5063403;28;20219;-63
2023/06/23 08:29:17;;;;;;;3.47;3.27;;;21.90;99.90;;;;;;5062800;28;20311;-61
2023/06/23 08:31:44;;;;;;;3.20;3.00;;;22.40;99.90;;;;;;5059174;28;20593;-64
2023/06/23 08:34:12;;;;;;;3.00;2.80;;;22.70;99.90;;;;;;5066718;28;20283;-64
2023/06/23 08:36:39;;;;;;;2.67;2.58;;;23.00;99.90;;;;;;5062401;28;20208;-62
2023/06/23 08:39:06;;;;;;;2.00;1.90;;;22.90;99.90;;;;;;5062399;28;20203;-62
2023/06/23 08:41:35;;;;;;;2.05;1.95;;;22.80;99.90;;;;;;5062060;28;20223;-63
2023/06/23 08:44:02;;;;;;;2.63;2.43;;;22.80;99.90;;;;;;5065964;28;20205;-63
2023/06/23 08:46:32;;;;;;;2.25;2.15;;;22.80;99.90;;;;;;5064897;28;20203;-64
2023/06/23 08:49:04;;;;;;;2.20;2.10;;;22.80;99.90;;;;;;5062319;28;20211;-65
2023/06/23 08:51:33;;;;;;;2.20;2.10;;;22.80;99.90;;;;;;5061782;28;20194;-63
2023/06/23 08:54:00;;;;;;;2.83;2.72;;;23.10;99.90;;;;;;5064020;28;20282;-64
2023/06/23 08:56:27;;;;;;;3.60;3.40;;;23.30;99.90;;;;;;5063553;28;20196;-64
2023/06/23 08:58:54;;;;;;;3.20;3.00;;;23.10;99.90;;;;;;5063705;28;20282;-64
2023/06/23 09:01:21;;;;;;;3.00;2.90;;;23.00;99.90;;;;;;5062940;28;20216;-63
2023/06/23 09:03:47;;;;;;;2.60;2.50;;;22.90;99.90;;;;;;5067294;28;20195;-64
2023/06/23 09:06:14;;;;;;;3.20;3.10;;;23.00;99.90;;;;;;5072031;28;20200;-63
2023/06/23 09:08:43;;;;;;;3.05;2.95;;;23.10;99.90;;;;;;5066200;28;20278;-66
2023/06/23 09:11:09;;;;;;;2.80;2.60;;;22.90;99.90;;;;;;5073328;28;20223;-64
2023/06/23 09:13:37;;;;;;;2.97;2.88;;;22.80;99.90;;;;;;5071029;28;20294;-63
2023/06/23 09:16:05;;;;;;;2.60;2.50;;;22.80;99.90;;;;;;5065436;28;20597;-63
2023/06/23 09:18:35;;;;;;;2.55;2.45;;;22.80;99.90;;;;;;5058921;28;20210;-64
2023/06/23 09:21:03;;;;;;;2.60;2.50;;;22.70;99.90;;;;;;5052670;28;20228;-63
2023/06/23 09:23:31;;;;;;;2.50;2.40;;;22.60;99.90;;;;;;5053048;28;20210;-65
2023/06/23 09:26:03;;;;;;;2.57;2.47;;;22.90;99.90;;;;;;5072526;28;20276;-63
2023/06/23 09:28:31;;;;;;;2.72;2.60;;;23.20;99.90;;;;;;5072962;28;20609;-65
2023/06/23 09:30:59;;;;;;;2.67;2.58;;;23.20;99.90;;;;;;5071923;28;20313;-64
2023/06/23 09:33:27;;;;;;;2.97;2.88;;;23.50;99.90;;;;;;5064003;28;20638;-63
2023/06/23 09:35:56;;;;;;;2.67;2.58;;;23.50;99.90;;;;;;5063736;28;20200;-64
2023/06/23 09:38:24;;;;;;;2.33;2.22;;;23.60;99.90;;;;;;5061813;28;20289;-64
2023/06/23 09:41:07;;;;;;;2.05;1.95;;;24.00;99.90;;;;;;5060665;28;20591;-63
2023/06/23 09:43:39;;;;;;;1.75;1.70;;;24.20;99.90;;;;;;5061725;28;20214;-65
2023/06/23 09:46:07;;;;;;;2.00;1.90;;;24.60;99.90;;;;;;5072442;28;20199;-64
2023/06/23 09:48:34;;;;;;;2.30;2.20;;;24.80;99.90;;;;;;5073001;28;20286;-64
2023/06/23 09:51:02;;;;;;;1.92;1.83;;;24.90;99.90;;;;;;5072783;28;20223;-65
2023/06/23 09:53:33;;;;;;;2.25;2.15;;;24.60;99.90;;;;;;5076076;28;20250;-65
2023/06/23 09:56:03;;;;;;;2.20;2.10;;;24.50;99.90;;;;;;5077017;28;20207;-63
2023/06/23 09:58:36;;;;;;;1.90;1.80;;;24.20;99.90;;;;;;5077278;28;20226;-64
2023/06/23 10:01:04;;;;;;;2.05;1.95;;;24.10;99.90;;;;;;5077548;28;20233;-65
2023/06/23 10:03:32;;;;;;;2.13;2.03;;;24.10;99.90;;;;;;5076094;28;20708;-65
2023/06/23 10:05:59;;;;;;;1.80;1.70;;;24.40;99.90;;;;;;5072394;28;20200;-62
2023/06/23 10:08:27;;;;;;;1.80;1.70;;;24.50;99.90;;;;;;5069929;28;20259;-63
2023/06/23 10:10:54;;;;;;;2.00;1.90;;;24.30;99.90;;;;;;5072378;28;20303;-63
2023/06/23 10:13:22;;;;;;;1.50;1.50;;;23.90;99.90;;;;;;5070716;28;20252;-63
2023/06/23 10:15:50;;;;;;;1.80;1.70;;;24.20;99.90;;;;;;5064844;28;20207;-62
2023/06/23 10:18:19;;;;;;;2.05;1.95;;;24.60;99.90;;;;;;5053765;28;20253;-63
2023/06/23 10:20:46;;;;;;;1.80;1.70;;;24.50;99.90;;;;;;5052793;28;20227;-63
2023/06/23 10:23:14;;;;;;;1.70;1.60;;;24.70;99.90;;;;;;5052353;28;20227;-62
2023/06/23 10:25:41;;;;;;;1.70;1.60;;;25.00;99.90;;;;;;5069892;28;20290;-64
2023/06/23 10:28:12;;;;;;;1.42;1.42;;;25.30;99.90;;;;;;5072108;28;20207;-63
2023/06/23 10:30:40;;;;;;;1.80;1.70;;;25.60;99.90;;;;;;5071782;28;20318;-62
2023/06/23 10:33:14;;;;;;;1.60;1.50;;;25.60;99.90;;;;;;5071993;28;20203;-62
2023/06/23 10:35:41;;;;;;;1.80;1.70;;;25.30;99.90;;;;;;5068119;28;20200;-62
2023/06/23 10:38:12;;;;;;;1.50;1.50;;;25.10;99.90;;;;;;5071479;28;20778;-62
2023/06/23 10:40:40;;;;;;;1.40;1.40;;;25.00;99.90;;;;;;5071025;28;20715;-62
2023/06/23 10:43:08;;;;;;;1.45;1.40;;;24.80;99.90;;;;;;5071476;28;20209;-64
2023/06/23 10:45:36;;;;;;;1.50;1.50;;;25.00;99.90;;;;;;5063930;28;20247;-64
2023/06/23 10:48:03;;;;;;;1.50;1.50;;;25.30;99.90;;;;;;5069722;28;20299;-63
2023/06/23 10:50:32;;;;;;;1.52;1.42;;;25.50;99.90;;;;;;5070445;28;20314;-62
2023/06/23 10:53:15;;;;;;;1.52;1.52;;;25.70;99.90;;;;;;5071885;28;20211;-63
2023/06/23 10:55:43;;;;;;;1.20;1.20;;;25.60;99.90;;;;;;5071946;28;20692;-63
2023/06/23 10:58:16;;;;;;;1.52;1.52;;;25.70;99.90;;;;;;5051516;28;20365;-62
2023/06/23 11:00:46;;;;;;;1.90;1.80;;;25.70;99.90;;;;;;5051434;28;20263;-64
2023/06/23 11:03:27;;;;;;;1.30;1.30;;;25.60;99.90;;;;;;5052277;28;20204;-63
2023/06/23 11:05:57;;;;;;;1.65;1.55;;;25.60;99.90;;;;;;5083626;28;20398;-63
2023/06/23 11:08:32;;;;;;;1.92;1.83;;;25.60;99.90;;;;;;5082491;28;20211;-62
2023/06/23 11:11:03;;;;;;;1.50;1.50;;;25.20;99.90;;;;;;5080426;28;20256;-64
2023/06/23 11:13:42;;;;;;;1.55;1.55;;;25.30;99.90;;;;;;5076020;28;20264;-64
2023/06/23 11:16:15;;;;;;;1.35;1.35;;;25.60;99.90;;;;;;5078780;28;20218;-66
2023/06/23 11:18:50;;;;;;;1.45;1.42;;;25.90;99.90;;;;;;5077432;28;20239;-62
2023/06/23 11:21:29;;;;;;;1.30;1.30;;;26.10;99.90;;;;;;5074742;28;20590;-63
2023/06/23 11:24:13;;;;;;;1.63;1.52;;;26.20;99.90;;;;;;5073895;28;20219;-62
2023/06/23 11:26:45;;;;;;;1.20;1.20;;;26.30;99.90;;;;;;5051391;28;20218;-64
2023/06/23 11:29:13;;;;;;;1.42;1.42;;;26.20;99.90;;;;;;5051218;28;20723;-64
2023/06/23 11:32:02;;;;;;;1.20;1.20;;;26.20;99.90;;;;;;5053971;28;20203;-64
2023/06/23 11:34:30;;;;;;;1.23;1.23;;;26.30;99.90;;;;;;5060069;28;20575;-63
2023/06/23 11:36:58;;;;;;;1.27;1.27;;;26.40;99.90;;;;;;5062719;28;20575;-62
2023/06/23 11:39:26;;;;;;;1.40;1.40;;;26.00;99.90;;;;;;5051819;28;20808;-65
2023/06/23 11:41:53;;;;;;;1.67;1.58;;;26.20;99.90;;;;;;5052109;28;20319;-63
2023/06/23 11:44:22;;;;;;;1.10;1.10;;;26.30;99.90;;;;;;5059582;28;20569;-63
2023/06/23 11:46:53;;;;;;;1.10;1.10;;;26.40;99.90;;;;;;5073378;28;20207;-62
2023/06/23 11:49:20;;;;;;;1.20;1.10;;;26.60;99.90;;;;;;5071717;28;20318;-62
2023/06/23 11:51:47;;;;;;;1.23;1.23;;;26.80;99.90;;;;;;5072303;28;20207;-61
2023/06/23 11:54:15;;;;;;;1.30;1.30;;;27.10;99.90;;;;;;5070422;28;20529;-63
2023/06/23 11:56:42;;;;;;;1.13;1.13;;;27.40;99.90;;;;;;5070947;28;20196;-62
2023/06/23 11:59:11;;;;;;;1.30;1.30;;;27.50;99.90;;;;;;5074747;28;20213;-64
2023/06/23 12:01:38;;;;;;;1.30;1.30;;;27.50;99.90;;;;;;5075144;28;20223;-62
2023/06/23 12:04:05;;;;;;;1.08;1.08;;;27.40;99.90;;;;;;5075059;28;20207;-63
2023/06/23 12:06:36;;;;;;;1.52;1.52;;;27.50;99.90;;;;;;5074961;28;20203;-64
2023/06/23 12:09:03;;;;;;;1.63;1.55;;;27.50;99.90;;;;;;5074593;28;20553;-63
2023/06/23 12:11:32;;;;;;;1.08;1.08;;;27.40;99.90;;;;;;5068786;28;20676;-64
2023/06/23 12:13:59;;;;;;;4.10;3.90;;;27.00;99.90;;;;;;5076438;28;20202;-63
2023/06/23 12:16:26;;;;;;;1.35;1.35;;;26.70;99.90;;;;;;5055218;28;20290;-64
2023/06/23 12:18:54;;;;;;;1.80;1.70;;;26.80;99.90;;;;;;5070047;28;20298;-64
2023/06/23 12:21:22;;;;;;;1.30;1.30;;;26.80;99.90;;;;;;5072468;28;20230;-62
2023/06/23 12:23:49;;;;;;;1.60;1.60;;;26.80;99.90;;;;;;5078575;28;20554;-64
2023/06/23 12:26:18;;;;;;;1.70;1.60;;;27.00;99.90;;;;;;5074931;28;20290;-63
2023/06/23 12:28:46;;;;;;;1.50;1.50;;;27.20;99.90;;;;;;5075361;28;20207;-63
2023/06/23 12:31:13;;;;;;;1.40;1.40;;;27.10;99.90;;;;;;5073433;28;20219;-64
2023/06/23 12:33:41;;;;;;;1.40;1.40;;;27.20;99.90;;;;;;5073234;28;20277;-63
2023/06/23 12:36:09;;;;;;;1.30;1.30;;;27.40;99.90;;;;;;5073574;28;21049;-64
2023/06/23 12:38:38;;;;;;;1.25;1.25;;;27.50;99.90;;;;;;5074244;28;20633;-62
2023/06/23 12:41:15;;;;;;;2.28;2.17;;;27.60;99.90;;;;;;5073093;28;20701;-65
2023/06/23 12:43:43;;;;;;;1.90;1.80;;;27.80;99.90;;;;;;5074334;28;20345;-63
2023/06/23 12:46:12;;;;;;;1.40;1.40;;;27.70;99.90;;;;;;5074780;28;20191;-63
2023/06/23 12:48:39;;;;;;;1.30;1.30;;;27.80;99.90;;;;;;5074209;28;20668;-64
2023/06/23 12:51:06;;;;;;;1.80;1.80;;;27.80;99.90;;;;;;5074146;28;20227;-63
2023/06/23 12:53:33;;;;;;;1.10;1.10;;;27.80;99.90;;;;;;5074056;28;20211;-64
2023/06/23 12:56:00;;;;;;;1.30;1.30;;;27.80;99.90;;;;;;5084455;28;20249;-64